ITY1632 LIBD-LIML
Flight info
| Callsign | ITY1632 |
|---|---|
| Flight time | 1h 13m |
| Altitude | 36000 |
| Route | TOPNO L995 DOGUS DCT LOMED DCT RUXOL Q920 KALIK |
| Aircraft | A320/M-SDE3FGHIRWY/LB1 |
Departure
| Time | 2026-05-07 09:03 |
|---|---|
| Airport | Bari Karol Wojtyła International Airport (LIBD) |
Arrival
| Time | 2026-05-07 10:17 |
|---|---|
| Airport | Milano Linate Airport (LIML) |
| Time | Latitude | Longitude | Altitude | Speed | Heading |
|---|---|---|---|---|---|
| 2026-05-07 08:51 | 41.13547 | 16.76398 | 149 ft | 0 kts | 160° |
| 2026-05-07 08:55 | 41.13550 | 16.76397 | 149 ft | 3 kts | 160° |
| 2026-05-07 08:56 | 41.13566 | 16.76389 | 148 ft | 3 kts | 160° |
| 2026-05-07 08:56 | 41.13583 | 16.76381 | 148 ft | 3 kts | 157° |
| 2026-05-07 08:56 | 41.13598 | 16.76368 | 148 ft | 3 kts | 121° |
| 2026-05-07 08:56 | 41.13604 | 16.76347 | 149 ft | 2 kts | 86° |
| 2026-05-07 08:57 | 41.13604 | 16.76340 | 149 ft | 0 kts | 76° |
| 2026-05-07 09:00 | 41.13631 | 16.76442 | 145 ft | 23 kts | 62° |
| 2026-05-07 09:00 | 41.13765 | 16.76559 | 139 ft | 24 kts | 17° |
| 2026-05-07 09:00 | 41.13810 | 16.76632 | 136 ft | 10 kts | 81° |
| 2026-05-07 09:01 | 41.13841 | 16.76732 | 133 ft | 13 kts | 65° |
| 2026-05-07 09:01 | 41.13880 | 16.76842 | 128 ft | 13 kts | 65° |
| 2026-05-07 09:01 | 41.13920 | 16.76959 | 126 ft | 18 kts | 67° |
| 2026-05-07 09:01 | 41.13963 | 16.77123 | 122 ft | 21 kts | 71° |
| 2026-05-07 09:02 | 41.14012 | 16.77315 | 122 ft | 23 kts | 68° |
| 2026-05-07 09:02 | 41.14136 | 16.77412 | 114 ft | 20 kts | 14° |
| 2026-05-07 09:02 | 41.14221 | 16.77336 | 115 ft | 13 kts | 250° |
| 2026-05-07 09:02 | 41.14141 | 16.77094 | 124 ft | 60 kts | 248° |
| 2026-05-07 09:03 | 41.13911 | 16.76295 | 144 ft | 122 kts | 249° |
| 2026-05-07 09:03 | 41.13544 | 16.75048 | 300 ft | 157 kts | 249° |
| 2026-05-07 09:03 | 41.13288 | 16.73678 | 906 ft | 151 kts | 247° |
| 2026-05-07 09:03 | 41.12949 | 16.72371 | 1444 ft | 155 kts | 243° |
| 2026-05-07 09:04 | 41.12522 | 16.70957 | 1735 ft | 176 kts | 242° |
| 2026-05-07 09:04 | 41.12031 | 16.69353 | 1981 ft | 199 kts | 243° |
| 2026-05-07 09:04 | 41.11481 | 16.67541 | 2288 ft | 224 kts | 244° |
| 2026-05-07 09:04 | 41.10880 | 16.65525 | 2750 ft | 244 kts | 245° |
| 2026-05-07 09:05 | 41.10253 | 16.63384 | 3518 ft | 252 kts | 246° |
| 2026-05-07 09:05 | 41.09628 | 16.61226 | 4370 ft | 256 kts | 248° |
| 2026-05-07 09:05 | 41.08983 | 16.58991 | 5201 ft | 261 kts | 249° |
| 2026-05-07 09:05 | 41.08335 | 16.56723 | 6048 ft | 265 kts | 249° |
| 2026-05-07 09:06 | 41.07680 | 16.54424 | 6941 ft | 268 kts | 249° |
| 2026-05-07 09:06 | 41.07024 | 16.52107 | 7836 ft | 268 kts | 249° |
| 2026-05-07 09:06 | 41.06370 | 16.49791 | 8750 ft | 268 kts | 249° |
| 2026-05-07 09:06 | 41.05724 | 16.47504 | 9598 ft | 270 kts | 250° |
| 2026-05-07 09:07 | 41.05060 | 16.45167 | 10366 ft | 275 kts | 249° |
| 2026-05-07 09:07 | 41.04355 | 16.42704 | 10608 ft | 297 kts | 249° |
| 2026-05-07 09:07 | 41.03592 | 16.40053 | 10900 ft | 316 kts | 249° |
| 2026-05-07 09:07 | 41.02802 | 16.37310 | 11563 ft | 320 kts | 249° |
| 2026-05-07 09:08 | 41.02008 | 16.34547 | 12334 ft | 322 kts | 249° |
| 2026-05-07 09:08 | 41.01212 | 16.31767 | 13117 ft | 323 kts | 249° |
| 2026-05-07 09:08 | 41.00413 | 16.28972 | 13888 ft | 325 kts | 249° |
| 2026-05-07 09:08 | 40.99618 | 16.26200 | 14529 ft | 327 kts | 249° |
| 2026-05-07 09:09 | 40.98803 | 16.23374 | 15174 ft | 329 kts | 248° |
| 2026-05-07 09:09 | 40.97981 | 16.20535 | 15796 ft | 332 kts | 248° |
| 2026-05-07 09:09 | 40.97152 | 16.17662 | 16421 ft | 335 kts | 248° |
| 2026-05-07 09:09 | 40.96321 | 16.14764 | 17045 ft | 338 kts | 249° |
| 2026-05-07 09:10 | 40.95740 | 16.11734 | 17646 ft | 343 kts | 260° |
| 2026-05-07 09:10 | 40.95659 | 16.08549 | 18235 ft | 350 kts | 271° |
| 2026-05-07 09:10 | 40.95897 | 16.06421 | 18582 ft | 355 kts | 278° |
| 2026-05-07 09:10 | 40.96446 | 16.03220 | 19088 ft | 359 kts | 279° |
| 2026-05-07 09:11 | 40.97177 | 15.98922 | 19751 ft | 363 kts | 279° |
| 2026-05-07 09:11 | 40.97736 | 15.95644 | 20256 ft | 367 kts | 279° |
| 2026-05-07 09:11 | 40.98109 | 15.93457 | 20599 ft | 369 kts | 279° |
| 2026-05-07 09:11 | 40.98677 | 15.90123 | 21100 ft | 372 kts | 279° |
| 2026-05-07 09:12 | 40.99250 | 15.86754 | 21612 ft | 376 kts | 279° |
| 2026-05-07 09:12 | 41.00010 | 15.82255 | 22277 ft | 380 kts | 279° |
| 2026-05-07 09:12 | 41.00397 | 15.79932 | 22602 ft | 383 kts | 279° |
| 2026-05-07 09:12 | 41.00964 | 15.76520 | 23062 ft | 386 kts | 279° |
| 2026-05-07 09:13 | 41.01658 | 15.73060 | 23533 ft | 392 kts | 287° |
| 2026-05-07 09:13 | 41.02817 | 15.69769 | 23921 ft | 399 kts | 297° |
| 2026-05-07 09:13 | 41.04463 | 15.66770 | 24310 ft | 406 kts | 308° |
| 2026-05-07 09:13 | 41.06379 | 15.64010 | 24699 ft | 408 kts | 309° |
| 2026-05-07 09:14 | 41.08309 | 15.61232 | 25076 ft | 410 kts | 309° |
| 2026-05-07 09:14 | 41.10244 | 15.58432 | 25450 ft | 412 kts | 309° |
| 2026-05-07 09:14 | 41.12161 | 15.55649 | 25808 ft | 414 kts | 309° |
| 2026-05-07 09:14 | 41.14109 | 15.52812 | 26167 ft | 416 kts | 309° |
| 2026-05-07 09:15 | 41.16061 | 15.49962 | 26529 ft | 418 kts | 309° |
| 2026-05-07 09:15 | 41.18028 | 15.47090 | 26878 ft | 420 kts | 309° |
| 2026-05-07 09:15 | 41.20000 | 15.44215 | 27226 ft | 422 kts | 309° |
| 2026-05-07 09:15 | 41.21963 | 15.41357 | 27558 ft | 424 kts | 309° |
| 2026-05-07 09:16 | 41.23954 | 15.38453 | 27888 ft | 426 kts | 309° |
| 2026-05-07 09:16 | 41.25958 | 15.35529 | 28207 ft | 428 kts | 309° |
| 2026-05-07 09:16 | 41.27965 | 15.32597 | 28537 ft | 430 kts | 309° |
| 2026-05-07 09:16 | 41.29981 | 15.29644 | 28852 ft | 432 kts | 309° |
| 2026-05-07 09:17 | 41.32005 | 15.26678 | 29156 ft | 433 kts | 309° |
| 2026-05-07 09:17 | 41.34008 | 15.23739 | 29442 ft | 435 kts | 309° |
| 2026-05-07 09:17 | 41.36050 | 15.20740 | 29725 ft | 437 kts | 309° |
| 2026-05-07 09:17 | 41.38098 | 15.17729 | 29992 ft | 439 kts | 309° |
| 2026-05-07 09:18 | 41.40150 | 15.14708 | 30241 ft | 441 kts | 309° |
| 2026-05-07 09:18 | 41.42184 | 15.11713 | 30463 ft | 442 kts | 309° |
| 2026-05-07 09:18 | 41.44250 | 15.08670 | 30688 ft | 443 kts | 308° |
| 2026-05-07 09:18 | 41.46319 | 15.05619 | 30916 ft | 443 kts | 308° |
| 2026-05-07 09:19 | 41.48389 | 15.02557 | 31118 ft | 444 kts | 308° |
| 2026-05-07 09:19 | 41.50461 | 14.99491 | 31405 ft | 443 kts | 308° |
| 2026-05-07 09:19 | 41.52490 | 14.96484 | 31728 ft | 441 kts | 308° |
| 2026-05-07 09:19 | 41.54542 | 14.93444 | 32046 ft | 439 kts | 308° |
| 2026-05-07 09:20 | 41.56588 | 14.90417 | 32361 ft | 437 kts | 308° |
| 2026-05-07 09:20 | 41.58626 | 14.87396 | 32656 ft | 436 kts | 308° |
| 2026-05-07 09:20 | 41.60625 | 14.84425 | 32935 ft | 435 kts | 308° |
| 2026-05-07 09:20 | 41.62645 | 14.81416 | 33260 ft | 434 kts | 308° |
| 2026-05-07 09:21 | 41.64661 | 14.78406 | 33587 ft | 432 kts | 308° |
| 2026-05-07 09:21 | 41.66666 | 14.75411 | 33904 ft | 431 kts | 308° |
| 2026-05-07 09:21 | 41.68665 | 14.72428 | 34196 ft | 430 kts | 308° |
| 2026-05-07 09:21 | 41.70639 | 14.69485 | 34458 ft | 429 kts | 308° |
| 2026-05-07 09:22 | 41.72628 | 14.66521 | 34710 ft | 427 kts | 308° |
| 2026-05-07 09:22 | 41.74614 | 14.63555 | 34964 ft | 426 kts | 307° |
| 2026-05-07 09:22 | 41.76591 | 14.60593 | 35208 ft | 425 kts | 307° |
| 2026-05-07 09:22 | 41.78540 | 14.57666 | 35450 ft | 424 kts | 307° |
| 2026-05-07 09:23 | 41.80507 | 14.54711 | 35668 ft | 424 kts | 307° |
| 2026-05-07 09:23 | 41.82473 | 14.51759 | 35895 ft | 423 kts | 307° |
| 2026-05-07 09:23 | 41.84432 | 14.48814 | 36012 ft | 422 kts | 307° |
| 2026-05-07 09:23 | 41.86381 | 14.45879 | 36033 ft | 421 kts | 307° |
| 2026-05-07 09:24 | 41.90243 | 14.40057 | 36032 ft | 419 kts | 307° |
| 2026-05-07 09:24 | 41.94132 | 14.34183 | 36035 ft | 419 kts | 307° |
| 2026-05-07 09:25 | 41.97998 | 14.28319 | 36033 ft | 419 kts | 307° |
| 2026-05-07 09:25 | 42.01848 | 14.22470 | 36037 ft | 420 kts | 307° |
| 2026-05-07 09:26 | 42.05705 | 14.16614 | 36037 ft | 419 kts | 306° |
| 2026-05-07 09:26 | 42.09575 | 14.10713 | 36043 ft | 420 kts | 306° |
| 2026-05-07 09:27 | 42.13426 | 14.04835 | 36051 ft | 420 kts | 306° |
| 2026-05-07 09:28 | 42.19236 | 13.95945 | 36052 ft | 420 kts | 306° |
| 2026-05-07 09:28 | 42.23069 | 13.90065 | 36045 ft | 420 kts | 306° |
| 2026-05-07 09:29 | 42.26930 | 13.84133 | 36041 ft | 420 kts | 306° |
| 2026-05-07 09:29 | 42.30792 | 13.78186 | 36045 ft | 421 kts | 306° |
| 2026-05-07 09:30 | 42.34626 | 13.72265 | 36050 ft | 420 kts | 306° |
| 2026-05-07 09:30 | 42.38485 | 13.66302 | 36053 ft | 421 kts | 306° |
| 2026-05-07 09:31 | 42.42317 | 13.60377 | 36053 ft | 421 kts | 306° |
| 2026-05-07 09:31 | 42.46167 | 13.54397 | 36054 ft | 421 kts | 305° |
| 2026-05-07 09:32 | 42.50011 | 13.48409 | 36049 ft | 421 kts | 305° |
| 2026-05-07 09:32 | 42.53839 | 13.42443 | 36048 ft | 421 kts | 305° |
| 2026-05-07 09:33 | 42.57657 | 13.36479 | 36048 ft | 421 kts | 305° |
| 2026-05-07 09:33 | 42.61503 | 13.30467 | 36042 ft | 421 kts | 305° |
| 2026-05-07 09:34 | 42.65344 | 13.24449 | 36044 ft | 421 kts | 305° |
| 2026-05-07 09:34 | 42.69151 | 13.18462 | 36039 ft | 421 kts | 304° |
| 2026-05-07 09:35 | 42.72959 | 13.12454 | 36042 ft | 421 kts | 304° |
| 2026-05-07 09:35 | 42.76800 | 13.06397 | 36040 ft | 422 kts | 304° |
| 2026-05-07 09:36 | 42.80607 | 13.00370 | 36042 ft | 422 kts | 304° |
| 2026-05-07 09:36 | 42.84435 | 12.94304 | 36048 ft | 422 kts | 304° |
| 2026-05-07 09:37 | 42.88270 | 12.88219 | 36049 ft | 422 kts | 304° |
| 2026-05-07 09:37 | 42.92079 | 12.82169 | 36048 ft | 423 kts | 304° |
| 2026-05-07 09:38 | 42.95911 | 12.76062 | 36050 ft | 423 kts | 304° |
| 2026-05-07 09:38 | 42.99705 | 12.69990 | 36047 ft | 422 kts | 304° |
| 2026-05-07 09:39 | 43.03522 | 12.63870 | 36050 ft | 423 kts | 304° |
| 2026-05-07 09:39 | 43.07338 | 12.57748 | 36051 ft | 422 kts | 304° |
| 2026-05-07 09:40 | 43.11127 | 12.51653 | 36055 ft | 422 kts | 304° |
| 2026-05-07 09:40 | 43.14915 | 12.45554 | 36056 ft | 422 kts | 304° |
| 2026-05-07 09:41 | 43.18725 | 12.39414 | 36055 ft | 422 kts | 304° |
| 2026-05-07 09:41 | 43.22517 | 12.33274 | 36038 ft | 421 kts | 303° |
| 2026-05-07 09:42 | 43.26287 | 12.27150 | 36054 ft | 423 kts | 303° |
| 2026-05-07 09:42 | 43.30077 | 12.20988 | 36055 ft | 422 kts | 303° |
| 2026-05-07 09:43 | 43.33843 | 12.14850 | 36063 ft | 422 kts | 303° |
| 2026-05-07 09:43 | 43.37629 | 12.08674 | 36065 ft | 422 kts | 303° |
| 2026-05-07 09:44 | 43.41386 | 12.02538 | 36061 ft | 421 kts | 303° |
| 2026-05-07 09:44 | 43.45162 | 11.96355 | 36063 ft | 421 kts | 303° |
| 2026-05-07 09:45 | 43.48904 | 11.90210 | 36067 ft | 421 kts | 303° |
| 2026-05-07 09:45 | 43.52668 | 11.84005 | 36061 ft | 421 kts | 303° |
| 2026-05-07 09:46 | 43.56405 | 11.77843 | 36061 ft | 421 kts | 303° |
| 2026-05-07 09:46 | 43.60167 | 11.71626 | 36064 ft | 421 kts | 303° |
| 2026-05-07 09:47 | 43.63929 | 11.65395 | 36069 ft | 422 kts | 303° |
| 2026-05-07 09:47 | 43.67660 | 11.59197 | 36072 ft | 422 kts | 303° |
| 2026-05-07 09:48 | 43.71395 | 11.52986 | 36073 ft | 422 kts | 303° |
| 2026-05-07 09:48 | 43.75154 | 11.46726 | 36077 ft | 421 kts | 303° |
| 2026-05-07 09:49 | 43.78875 | 11.40519 | 36077 ft | 421 kts | 303° |
| 2026-05-07 09:49 | 43.82595 | 11.34284 | 36079 ft | 421 kts | 303° |
| 2026-05-07 09:50 | 43.86322 | 11.28026 | 36070 ft | 421 kts | 303° |
| 2026-05-07 09:50 | 43.90045 | 11.21764 | 36077 ft | 421 kts | 303° |
| 2026-05-07 09:51 | 43.93773 | 11.15489 | 36076 ft | 421 kts | 303° |
| 2026-05-07 09:51 | 43.97473 | 11.09240 | 36066 ft | 421 kts | 303° |
| 2026-05-07 09:52 | 44.01160 | 11.02907 | 36075 ft | 419 kts | 298° |
| 2026-05-07 09:52 | 44.03702 | 10.95803 | 36077 ft | 406 kts | 282° |
| 2026-05-07 09:53 | 44.05316 | 10.88266 | 36081 ft | 406 kts | 282° |
| 2026-05-07 09:53 | 44.06933 | 10.80778 | 36084 ft | 407 kts | 282° |
| 2026-05-07 09:54 | 44.08556 | 10.73235 | 35960 ft | 406 kts | 282° |
| 2026-05-07 09:54 | 44.09365 | 10.69464 | 35432 ft | 407 kts | 282° |
| 2026-05-07 09:54 | 44.10175 | 10.65664 | 34633 ft | 409 kts | 281° |
| 2026-05-07 09:54 | 44.10983 | 10.61917 | 33790 ft | 412 kts | 284° |
| 2026-05-07 09:55 | 44.12140 | 10.58241 | 33088 ft | 415 kts | 293° |
| 2026-05-07 09:55 | 44.13690 | 10.54840 | 32505 ft | 415 kts | 297° |
| 2026-05-07 09:55 | 44.15282 | 10.51513 | 31902 ft | 411 kts | 297° |
| 2026-05-07 09:55 | 44.16865 | 10.48204 | 31317 ft | 408 kts | 296° |
| 2026-05-07 09:56 | 44.18409 | 10.44968 | 30733 ft | 404 kts | 296° |
| 2026-05-07 09:56 | 44.19961 | 10.41712 | 30149 ft | 402 kts | 296° |
| 2026-05-07 09:56 | 44.21503 | 10.38472 | 29512 ft | 398 kts | 296° |
| 2026-05-07 09:56 | 44.23023 | 10.35276 | 28954 ft | 393 kts | 296° |
| 2026-05-07 09:57 | 44.24511 | 10.32147 | 28402 ft | 389 kts | 296° |
| 2026-05-07 09:57 | 44.25999 | 10.29015 | 27845 ft | 384 kts | 296° |
| 2026-05-07 09:57 | 44.27468 | 10.25925 | 27332 ft | 379 kts | 296° |
| 2026-05-07 09:57 | 44.28914 | 10.22884 | 26823 ft | 374 kts | 296° |
| 2026-05-07 09:58 | 44.30344 | 10.19865 | 26318 ft | 371 kts | 297° |
| 2026-05-07 09:58 | 44.31764 | 10.16867 | 25830 ft | 369 kts | 297° |
| 2026-05-07 09:58 | 44.33173 | 10.13889 | 25345 ft | 367 kts | 297° |
| 2026-05-07 09:58 | 44.34557 | 10.10961 | 24879 ft | 364 kts | 297° |
| 2026-05-07 09:59 | 44.35944 | 10.08024 | 24413 ft | 360 kts | 297° |
| 2026-05-07 09:59 | 44.37319 | 10.05104 | 23953 ft | 358 kts | 297° |
| 2026-05-07 09:59 | 44.38680 | 10.02205 | 23467 ft | 356 kts | 297° |
| 2026-05-07 09:59 | 44.40032 | 9.99323 | 22970 ft | 353 kts | 297° |
| 2026-05-07 10:00 | 44.41374 | 9.96464 | 22495 ft | 350 kts | 298° |
| 2026-05-07 10:00 | 44.42690 | 9.93658 | 22047 ft | 348 kts | 298° |
| 2026-05-07 10:00 | 44.44009 | 9.90837 | 21581 ft | 345 kts | 298° |
| 2026-05-07 10:00 | 44.45319 | 9.88031 | 21125 ft | 342 kts | 299° |
| 2026-05-07 10:01 | 44.46621 | 9.85248 | 20667 ft | 340 kts | 299° |
| 2026-05-07 10:01 | 44.47932 | 9.82502 | 20212 ft | 339 kts | 301° |
| 2026-05-07 10:01 | 44.49258 | 9.79831 | 19756 ft | 337 kts | 302° |
| 2026-05-07 10:01 | 44.50613 | 9.77152 | 19302 ft | 336 kts | 302° |
| 2026-05-07 10:02 | 44.51966 | 9.74479 | 18850 ft | 335 kts | 302° |
| 2026-05-07 10:02 | 44.53310 | 9.71813 | 18400 ft | 334 kts | 302° |
| 2026-05-07 10:02 | 44.54644 | 9.69152 | 17916 ft | 333 kts | 302° |
| 2026-05-07 10:02 | 44.55968 | 9.66495 | 17462 ft | 331 kts | 302° |
| 2026-05-07 10:03 | 44.57265 | 9.63886 | 17036 ft | 329 kts | 302° |
| 2026-05-07 10:03 | 44.58568 | 9.61263 | 16603 ft | 326 kts | 302° |
| 2026-05-07 10:03 | 44.59865 | 9.58651 | 16170 ft | 324 kts | 302° |
| 2026-05-07 10:03 | 44.61131 | 9.56098 | 15756 ft | 320 kts | 302° |
| 2026-05-07 10:04 | 44.62399 | 9.53537 | 15441 ft | 316 kts | 302° |
| 2026-05-07 10:04 | 44.63635 | 9.51039 | 15317 ft | 306 kts | 302° |
| 2026-05-07 10:04 | 44.64835 | 9.48611 | 15123 ft | 299 kts | 302° |
| 2026-05-07 10:04 | 44.66006 | 9.46238 | 14705 ft | 303 kts | 302° |
| 2026-05-07 10:05 | 44.67209 | 9.43792 | 14387 ft | 301 kts | 302° |
| 2026-05-07 10:05 | 44.68399 | 9.41373 | 14099 ft | 298 kts | 302° |
| 2026-05-07 10:05 | 44.69558 | 9.39043 | 13977 ft | 290 kts | 305° |
| 2026-05-07 10:05 | 44.70966 | 9.37070 | 13846 ft | 284 kts | 321° |
| 2026-05-07 10:06 | 44.72710 | 9.35704 | 13187 ft | 297 kts | 337° |
| 2026-05-07 10:06 | 44.74811 | 9.35113 | 12260 ft | 320 kts | 354° |
| 2026-05-07 10:06 | 44.77088 | 9.34912 | 11355 ft | 334 kts | 354° |
| 2026-05-07 10:06 | 44.79448 | 9.34680 | 10473 ft | 340 kts | 354° |
| 2026-05-07 10:07 | 44.81773 | 9.34438 | 9609 ft | 336 kts | 354° |
| 2026-05-07 10:07 | 44.84097 | 9.34188 | 8681 ft | 333 kts | 354° |
| 2026-05-07 10:07 | 44.86397 | 9.33938 | 7788 ft | 330 kts | 354° |
| 2026-05-07 10:07 | 44.88671 | 9.33691 | 7114 ft | 322 kts | 354° |
| 2026-05-07 10:08 | 44.90873 | 9.33457 | 6543 ft | 311 kts | 354° |
| 2026-05-07 10:08 | 44.92946 | 9.33240 | 6213 ft | 293 kts | 354° |
| 2026-05-07 10:08 | 44.94930 | 9.33033 | 5880 ft | 278 kts | 354° |
| 2026-05-07 10:08 | 44.96809 | 9.32836 | 5547 ft | 263 kts | 354° |
| 2026-05-07 10:09 | 44.98586 | 9.32648 | 5316 ft | 246 kts | 354° |
| 2026-05-07 10:09 | 45.00238 | 9.32473 | 5192 ft | 238 kts | 354° |
| 2026-05-07 10:09 | 45.01887 | 9.32298 | 5067 ft | 236 kts | 354° |
| 2026-05-07 10:09 | 45.03527 | 9.32122 | 4944 ft | 236 kts | 354° |
| 2026-05-07 10:10 | 45.05162 | 9.31949 | 4990 ft | 237 kts | 354° |
| 2026-05-07 10:10 | 45.06805 | 9.31776 | 4996 ft | 236 kts | 354° |
| 2026-05-07 10:10 | 45.08444 | 9.31603 | 4971 ft | 237 kts | 354° |
| 2026-05-07 10:10 | 45.10080 | 9.31426 | 4853 ft | 236 kts | 354° |
| 2026-05-07 10:11 | 45.11691 | 9.31251 | 4719 ft | 235 kts | 354° |
| 2026-05-07 10:11 | 45.13325 | 9.31073 | 4595 ft | 234 kts | 354° |
| 2026-05-07 10:11 | 45.14948 | 9.30896 | 4449 ft | 234 kts | 354° |
| 2026-05-07 10:11 | 45.16570 | 9.30719 | 4332 ft | 233 kts | 354° |
| 2026-05-07 10:12 | 45.18190 | 9.30542 | 4206 ft | 233 kts | 354° |
| 2026-05-07 10:12 | 45.19783 | 9.30368 | 4079 ft | 232 kts | 354° |
| 2026-05-07 10:12 | 45.21398 | 9.30191 | 3955 ft | 232 kts | 354° |
| 2026-05-07 10:12 | 45.23012 | 9.30014 | 3821 ft | 232 kts | 354° |
| 2026-05-07 10:13 | 45.24618 | 9.29842 | 3695 ft | 232 kts | 355° |
| 2026-05-07 10:13 | 45.26224 | 9.29671 | 3569 ft | 231 kts | 354° |
| 2026-05-07 10:13 | 45.27811 | 9.29500 | 3468 ft | 227 kts | 354° |
| 2026-05-07 10:13 | 45.29350 | 9.29336 | 3183 ft | 223 kts | 354° |
| 2026-05-07 10:14 | 45.30888 | 9.29171 | 2866 ft | 221 kts | 356° |
| 2026-05-07 10:14 | 45.32406 | 9.29008 | 2587 ft | 216 kts | 355° |
| 2026-05-07 10:14 | 45.33885 | 9.28849 | 2303 ft | 210 kts | 355° |
| 2026-05-07 10:14 | 45.35317 | 9.28695 | 2020 ft | 203 kts | 356° |
| 2026-05-07 10:15 | 45.36690 | 9.28547 | 1775 ft | 191 kts | 356° |
| 2026-05-07 10:15 | 45.37966 | 9.28410 | 1513 ft | 178 kts | 356° |
| 2026-05-07 10:15 | 45.39143 | 9.28284 | 1260 ft | 162 kts | 356° |
| 2026-05-07 10:15 | 45.40215 | 9.28169 | 1034 ft | 148 kts | 356° |
| 2026-05-07 10:16 | 45.41217 | 9.28061 | 830 ft | 141 kts | 355° |
| 2026-05-07 10:16 | 45.42173 | 9.27958 | 640 ft | 138 kts | 355° |
| 2026-05-07 10:16 | 45.43120 | 9.27857 | 458 ft | 136 kts | 356° |
| 2026-05-07 10:16 | 45.44055 | 9.27767 | 353 ft | 131 kts | 355° |
| 2026-05-07 10:17 | 45.44813 | 9.27687 | 358 ft | 85 kts | 355° |
| 2026-05-07 10:17 | 45.45284 | 9.27644 | 358 ft | 45 kts | 5° |
| 2026-05-07 10:17 | 45.45457 | 9.27800 | 364 ft | 28 kts | 34° |
| 2026-05-07 10:17 | 45.45644 | 9.27832 | 364 ft | 27 kts | 358° |
| 2026-05-07 10:18 | 45.45830 | 9.27822 | 364 ft | 27 kts | 359° |
| 2026-05-07 10:18 | 45.45938 | 9.27852 | 360 ft | 10 kts | 15° |
| 2026-05-07 10:18 | 45.45941 | 9.27853 | 360 ft | 0 kts | 12° |
| 2026-05-07 10:18 | 45.45953 | 9.27853 | 360 ft | 2 kts | 4° |
| 2026-05-07 10:19 | 45.45969 | 9.27852 | 360 ft | 2 kts | 355° |
| 2026-05-07 10:19 | 45.45973 | 9.27852 | 360 ft | 0 kts | 355° |